Time;durP1;ratioP1;P1;durP2;ratioP2;P2;SDS_P1;SDS_P2;PMS_P1;PMS_P2;Temp;Humidity;BMP_temperature;BMP_pressure;BME280_temperature;BME280_humidity;BME280_pressure;Samples;Min_cycle;Max_cycle;Signal;HPM_P1;HPM_P2
2021/10/12 00:02:26;;;;;;;12.00;3.67;;;;;;;10.74;100.00;94597.09;5079783;28;20058;-69
2021/10/12 00:04:53;;;;;;;10.38;3.55;;;;;;;10.56;100.00;94610.34;5076497;28;20126;-70
2021/10/12 00:07:20;;;;;;;4.22;2.42;;;;;;;10.29;100.00;94605.72;5079150;28;20500;-69
2021/10/12 00:09:47;;;;;;;6.55;3.33;;;;;;;9.95;100.00;94590.00;5076140;28;20085;-69
2021/10/12 00:12:13;;;;;;;5.97;2.45;;;;;;;9.96;100.00;94596.81;5080850;28;20044;-69
2021/10/12 00:14:40;;;;;;;4.85;2.90;;;;;;;9.91;100.00;94589.69;5095464;28;20056;-69
2021/10/12 00:17:07;;;;;;;4.72;2.40;;;;;;;9.74;100.00;94578.44;5095968;28;20036;-69
2021/10/12 00:19:34;;;;;;;6.28;2.95;;;;;;;9.79;100.00;94581.13;5095611;28;20104;-70
2021/10/12 00:22:01;;;;;;;5.47;3.45;;;;;;;9.70;100.00;94561.72;5097595;28;20044;-69
2021/10/12 00:24:27;;;;;;;7.35;3.92;;;;;;;9.73;100.00;94562.03;5096305;28;20109;-69
2021/10/12 00:26:54;;;;;;;3.28;2.22;;;;;;;9.80;100.00;94574.91;5094904;28;20047;-69
2021/10/12 00:29:21;;;;;;;3.50;2.10;;;;;;;9.75;100.00;94575.59;5096775;28;20047;-70
2021/10/12 00:31:48;;;;;;;5.25;3.40;;;;;;;9.80;100.00;94581.94;5092999;28;20040;-69
2021/10/12 00:34:15;;;;;;;5.68;3.47;;;;;;;9.84;100.00;94577.84;5090509;28;20105;-69
2021/10/12 00:36:42;;;;;;;7.55;4.35;;;;;;;9.73;100.00;94582.84;5094012;28;20031;-70
2021/10/12 00:39:08;;;;;;;9.40;4.32;;;;;;;9.81;100.00;94583.50;5092714;28;20698;-70
2021/10/12 00:41:35;;;;;;;7.55;3.42;;;;;;;9.74;100.00;94584.44;5094824;28;20044;-69
2021/10/12 00:44:03;;;;;;;4.68;2.70;;;;;;;9.69;100.00;94580.94;5092941;28;20044;-67
2021/10/12 00:46:29;;;;;;;6.13;3.05;;;;;;;9.71;100.00;94600.50;5091072;28;20039;-69
2021/10/12 00:48:57;;;;;;;6.25;2.60;;;;;;;9.69;100.00;94615.53;5077173;28;20040;-69
2021/10/12 00:51:25;;;;;;;10.77;2.63;;;;;;;9.55;100.00;94616.81;5078474;28;20047;-69
2021/10/12 00:53:53;;;;;;;4.50;2.47;;;;;;;9.57;100.00;94614.78;5096516;28;20044;-69
2021/10/12 00:56:22;;;;;;;4.88;3.15;;;;;;;9.45;100.00;94601.00;5090435;28;20060;-69
2021/10/12 00:58:49;;;;;;;6.72;4.13;;;;;;;9.56;100.00;94615.78;5092491;28;20059;-69
2021/10/12 01:01:16;;;;;;;6.65;3.85;;;;;;;9.56;100.00;94628.78;5098552;28;20067;-69
2021/10/12 01:03:43;;;;;;;8.18;3.40;;;;;;;9.62;100.00;94633.09;5091317;28;20074;-69
2021/10/12 01:06:12;;;;;;;6.35;3.03;;;;;;;9.63;100.00;94624.25;5094345;28;20044;-70
2021/10/12 01:08:38;;;;;;;4.20;2.13;;;;;;;9.63;100.00;94633.88;5094713;28;20824;-70
2021/10/12 01:11:07;;;;;;;3.40;2.35;;;;;;;9.46;100.00;94610.41;5095297;28;20039;-70
2021/10/12 01:13:34;;;;;;;5.07;2.72;;;;;;;9.66;100.00;94638.63;5092081;28;20109;-70
2021/10/12 01:16:02;;;;;;;7.97;3.63;;;;;;;9.53;100.00;94631.84;5098331;28;20508;-70
2021/10/12 01:18:28;;;;;;;5.68;2.95;;;;;;;9.61;100.00;94630.72;5095217;28;20046;-70
2021/10/12 01:20:55;;;;;;;4.60;2.85;;;;;;;9.47;100.00;94633.56;5098144;28;20043;-69
2021/10/12 01:23:22;;;;;;;2.45;1.88;;;;;;;9.29;100.00;94618.91;5103295;28;20039;-70
2021/10/12 01:25:49;;;;;;;2.10;1.65;;;;;;;9.09;100.00;94639.22;5101953;28;20523;-70
2021/10/12 01:28:16;;;;;;;4.32;2.50;;;;;;;9.03;100.00;94634.94;5096250;28;20433;-69
2021/10/12 01:30:43;;;;;;;4.10;2.13;;;;;;;9.05;100.00;94635.50;5097482;28;20047;-70
2021/10/12 01:33:10;;;;;;;3.70;2.85;;;;;;;8.92;100.00;94619.13;5096295;28;20044;-70
2021/10/12 01:35:38;;;;;;;3.05;2.65;;;;;;;8.98;100.00;94617.41;5096215;28;20043;-69
2021/10/12 01:38:05;;;;;;;3.67;2.50;;;;;;;8.91;100.00;94616.72;5098371;28;20035;-70
2021/10/12 01:40:32;;;;;;;3.88;2.42;;;;;;;8.85;100.00;94613.22;5080979;28;20040;-70
2021/10/12 01:42:59;;;;;;;5.82;2.22;;;;;;;8.85;100.00;94612.44;5093947;28;20051;-70
2021/10/12 01:45:26;;;;;;;3.58;2.10;;;;;;;8.83;100.00;94610.06;5099490;28;20528;-70
2021/10/12 01:47:53;;;;;;;4.18;2.67;;;;;;;8.83;100.00;94599.69;5092233;28;20044;-70
2021/10/12 01:50:20;;;;;;;2.85;2.38;;;;;;;8.85;100.00;94592.47;5096845;28;20497;-70
2021/10/12 01:52:47;;;;;;;6.10;2.63;;;;;;;8.80;100.00;94587.16;5093336;28;20040;-70
2021/10/12 01:55:17;;;;;;;5.38;3.17;;;;;;;8.89;100.00;94587.59;5098057;28;20039;-70
2021/10/12 01:57:44;;;;;;;4.07;3.03;;;;;;;8.80;100.00;94579.34;5098163;28;20048;-70
2021/10/12 02:00:11;;;;;;;4.53;3.10;;;;;;;8.66;100.00;94583.19;5100461;28;22094;-70
2021/10/12 02:02:38;;;;;;;4.82;2.78;;;;;;;8.60;100.00;94567.47;5094983;28;20054;-69
2021/10/12 02:05:06;;;;;;;3.88;2.13;;;;;;;8.67;100.00;94561.41;5094756;28;20108;-70
2021/10/12 02:07:33;;;;;;;3.40;2.33;;;;;;;8.75;100.00;94561.06;5097143;28;20497;-70
2021/10/12 02:10:00;;;;;;;3.95;3.05;;;;;;;8.76;100.00;94562.66;5094025;28;20043;-69
2021/10/12 02:12:27;;;;;;;3.67;3.00;;;;;;;8.70;100.00;94558.38;5069657;28;20402;-69
2021/10/12 02:14:54;;;;;;;3.97;2.88;;;;;;;8.68;100.00;94555.19;5065391;28;20524;-69
2021/10/12 02:17:21;;;;;;;4.70;2.65;;;;;;;8.80;100.00;94563.78;5059895;28;20040;-69
2021/10/12 02:19:48;;;;;;;3.25;2.40;;;;;;;8.68;100.00;94560.38;5064816;28;20040;-69
2021/10/12 02:22:14;;;;;;;3.58;2.42;;;;;;;8.61;100.00;94553.50;5065277;28;20044;-70
2021/10/12 02:24:41;;;;;;;2.95;2.38;;;;;;;8.51;100.00;94550.66;5064551;28;20044;-70
2021/10/12 02:27:08;;;;;;;2.92;2.28;;;;;;;8.53;100.00;94548.63;5064735;28;20391;-70
2021/10/12 02:29:35;;;;;;;5.43;2.45;;;;;;;8.52;100.00;94535.91;5065234;28;20119;-69
2021/10/12 02:32:02;;;;;;;6.40;3.38;;;;;;;8.38;100.00;94545.66;5064646;28;20047;-70
2021/10/12 02:34:28;;;;;;;4.18;3.53;;;;;;;8.34;100.00;94539.34;5065208;28;20396;-70
2021/10/12 02:36:55;;;;;;;3.65;2.30;;;;;;;8.39;100.00;94547.22;5064823;28;20041;-71
2021/10/12 02:39:22;;;;;;;2.38;2.15;;;;;;;8.37;100.00;94550.06;5063822;28;20444;-70
2021/10/12 02:41:49;;;;;;;3.40;2.10;;;;;;;8.38;100.00;94541.25;5063008;28;20041;-70
2021/10/12 02:44:16;;;;;;;4.60;2.50;;;;;;;8.53;100.00;94538.25;5063034;28;20044;-70
2021/10/12 02:46:42;;;;;;;2.75;2.30;;;;;;;8.55;100.00;94541.44;5064000;28;20037;-70
2021/10/12 02:49:09;;;;;;;4.55;2.65;;;;;;;8.58;100.00;94533.19;5064165;28;20040;-70
2021/10/12 02:51:36;;;;;;;4.05;2.80;;;;;;;8.63;100.00;94547.31;5061849;28;22701;-70
2021/10/12 02:54:02;;;;;;;2.55;2.03;;;;;;;8.58;100.00;94540.97;5061664;28;20135;-70
2021/10/12 02:56:29;;;;;;;7.88;4.13;;;;;;;8.51;100.00;94542.88;5067065;28;20083;-70
2021/10/12 02:58:56;;;;;;;3.50;2.13;;;;;;;8.52;100.00;94536.69;5066533;28;20052;-70
2021/10/12 03:01:23;;;;;;;2.97;2.47;;;;;;;8.50;100.00;94543.91;5067795;28;20044;-69
2021/10/12 03:03:50;;;;;;;4.43;2.63;;;;;;;8.43;100.00;94538.03;5068024;28;20090;-70
2021/10/12 03:06:17;;;;;;;3.15;1.98;;;;;;;8.56;100.00;94548.19;5068171;28;20422;-70
2021/10/12 03:08:43;;;;;;;4.00;2.55;;;;;;;8.50;100.00;94543.09;5067814;28;20040;-70
2021/10/12 03:11:10;;;;;;;2.15;1.77;;;;;;;8.50;100.00;94538.72;5066472;28;20055;-70
2021/10/12 03:13:37;;;;;;;7.57;2.97;;;;;;;8.48;100.00;94551.13;5098889;28;20051;-70
2021/10/12 03:16:04;;;;;;;3.55;2.20;;;;;;;8.40;100.00;94538.44;5095432;28;20819;-69
2021/10/12 03:18:32;;;;;;;2.85;2.10;;;;;;;8.44;100.00;94534.41;5092504;28;20044;-70
2021/10/12 03:20:59;;;;;;;4.32;2.17;;;;;;;8.42;100.00;94536.44;5098927;28;20171;-70
2021/10/12 03:23:26;;;;;;;2.95;2.05;;;;;;;8.43;100.00;94532.84;5097837;28;20093;-69
2021/10/12 03:25:54;;;;;;;3.17;2.42;;;;;;;8.32;100.00;94536.16;5100623;28;20036;-69
2021/10/12 03:28:21;;;;;;;1.90;1.60;;;;;;;8.35;100.00;94538.31;5099121;28;20405;-69
2021/10/12 03:30:48;;;;;;;5.13;3.25;;;;;;;8.31;100.00;94530.19;5095304;28;20047;-69
2021/10/12 03:33:16;;;;;;;3.33;2.67;;;;;;;8.31;100.00;94539.78;5093449;28;20452;-70
2021/10/12 03:35:53;;;;;;;2.92;2.13;;;;;;;8.33;100.00;94535.94;5100292;28;20044;-68
2021/10/12 03:38:20;;;;;;;2.47;2.00;;;;;;;8.26;100.00;94531.88;5094146;28;20054;-69
2021/10/12 03:40:47;;;;;;;3.30;2.40;;;;;;;8.21;100.00;94522.97;5096107;28;20462;-69
2021/10/12 03:43:13;;;;;;;6.97;2.03;;;;;;;8.22;100.00;94534.91;5094377;28;20100;-69
2021/10/12 03:45:40;;;;;;;3.42;2.22;;;;;;;8.18;100.00;94531.19;5076805;28;20097;-69
2021/10/12 03:48:07;;;;;;;4.78;2.53;;;;;;;8.07;100.00;94542.34;5099827;28;20032;-69
2021/10/12 03:50:34;;;;;;;4.05;2.83;;;;;;;8.00;100.00;94539.03;5100060;28;20048;-69
2021/10/12 03:53:00;;;;;;;11.57;4.72;;;;;;;7.93;100.00;94548.72;5096864;28;20117;-69
2021/10/12 03:55:27;;;;;;;2.67;2.10;;;;;;;7.96;100.00;94540.47;5094055;28;20059;-69
2021/10/12 03:57:54;;;;;;;2.67;2.20;;;;;;;7.90;100.00;94528.41;5094703;28;20109;-69
2021/10/12 04:00:22;;;;;;;4.57;2.10;;;;;;;7.92;100.00;94531.56;5095282;28;20062;-69
2021/10/12 04:02:49;;;;;;;4.15;2.42;;;;;;;7.72;100.00;94522.25;5099607;28;20048;-70
2021/10/12 04:05:16;;;;;;;3.92;2.53;;;;;;;7.80;100.00;94537.50;5092284;28;20052;-70
2021/10/12 04:07:43;;;;;;;4.93;3.05;;;;;;;7.83;100.00;94539.69;5101068;28;20036;-70
2021/10/12 04:10:09;;;;;;;2.92;2.42;;;;;;;7.73;100.00;94538.63;5098151;28;20043;-69
2021/10/12 04:12:36;;;;;;;6.22;2.50;;;;;;;7.76;100.00;94538.97;5100033;28;20056;-69
2021/10/12 04:15:03;;;;;;;3.28;2.33;;;;;;;7.64;100.00;94525.16;5093298;28;20040;-69
2021/10/12 04:17:30;;;;;;;5.03;3.15;;;;;;;7.71;100.00;94531.06;5094490;28;20447;-69
2021/10/12 04:19:57;;;;;;;6.40;4.32;;;;;;;7.71;100.00;94531.06;5096942;28;20040;-69
2021/10/12 04:22:24;;;;;;;6.10;2.55;;;;;;;7.72;100.00;94531.84;5097414;28;20051;-70
2021/10/12 04:24:51;;;;;;;11.93;6.50;;;;;;;7.77;100.00;94526.78;5096367;28;20098;-68
2021/10/12 04:27:18;;;;;;;5.95;4.30;;;;;;;7.74;100.00;94516.84;5104304;28;20036;-69
2021/10/12 04:29:44;;;;;;;3.92;2.80;;;;;;;7.70;100.00;94523.50;5094102;28;20050;-69
2021/10/12 04:32:11;;;;;;;3.40;2.53;;;;;;;7.62;100.00;94516.84;5078731;28;20093;-68
2021/10/12 04:34:38;;;;;;;3.45;2.33;;;;;;;7.51;100.00;94514.97;5096469;28;20043;-70
2021/10/12 04:37:05;;;;;;;3.35;2.35;;;;;;;7.51;100.00;94520.13;5104500;28;20534;-69
2021/10/12 04:39:32;;;;;;;6.57;3.13;;;;;;;7.45;100.00;94520.03;5090628;28;20104;-70
2021/10/12 04:42:01;;;;;;;5.88;2.47;;;;;;;7.46;100.00;94513.81;5089974;28;20047;-70
2021/10/12 04:44:29;;;;;;;5.40;3.28;;;;;;;7.53;100.00;94518.16;5099979;28;20059;-70
2021/10/12 04:46:56;;;;;;;3.72;2.55;;;;;;;7.57;100.00;94519.28;5098381;28;20057;-70
2021/10/12 04:49:22;;;;;;;4.18;2.75;;;;;;;7.49;100.00;94514.38;5096825;28;20496;-70
2021/10/12 04:51:49;;;;;;;2.90;2.20;;;;;;;7.55;100.00;94521.31;5095550;28;20052;-70
2021/10/12 04:54:16;;;;;;;5.03;3.22;;;;;;;7.46;100.00;94519.00;5094397;28;20032;-70
2021/10/12 04:56:43;;;;;;;3.92;2.38;;;;;;;7.62;100.00;94529.78;5069452;28;20051;-70
2021/10/12 04:59:10;;;;;;;13.35;5.93;;;;;;;7.47;100.00;94512.81;5089814;28;20047;-70
2021/10/12 05:01:38;;;;;;;10.10;5.40;;;;;;;7.51;100.00;94526.13;5098581;28;20581;-69
2021/10/12 05:04:05;;;;;;;5.75;3.75;;;;;;;7.50;100.00;94529.72;5094168;28;20528;-69
2021/10/12 05:06:32;;;;;;;8.98;4.88;;;;;;;7.47;100.00;94525.78;5100949;28;21648;-69
2021/10/12 05:08:59;;;;;;;5.43;3.25;;;;;;;7.39;100.00;94523.47;5094453;28;20087;-69
2021/10/12 05:11:26;;;;;;;4.45;3.63;;;;;;;7.34;100.00;94525.94;5080126;28;20055;-68
2021/10/12 05:13:55;;;;;;;6.15;4.28;;;;;;;7.25;100.00;94522.84;5098536;28;20055;-67
2021/10/12 05:16:23;;;;;;;4.30;3.38;;;;;;;7.19;100.00;94518.53;5076936;28;20445;-67
2021/10/12 05:18:54;;;;;;;4.03;3.30;;;;;;;7.23;100.00;94529.25;5069417;28;20048;-68
2021/10/12 05:21:21;;;;;;;4.22;2.95;;;;;;;7.23;100.00;94529.25;5100574;28;20043;-68
2021/10/12 05:23:48;;;;;;;5.22;3.45;;;;;;;7.23;100.00;94518.91;5097161;28;20102;-68
2021/10/12 05:26:15;;;;;;;3.17;2.67;;;;;;;7.28;100.00;94512.06;5094847;28;20059;-69
2021/10/12 05:28:42;;;;;;;5.13;3.35;;;;;;;7.29;100.00;94505.06;5098229;28;20092;-69
2021/10/12 05:31:09;;;;;;;5.30;3.22;;;;;;;7.45;100.00;94522.63;5103302;28;20898;-69
2021/10/12 05:33:36;;;;;;;9.05;4.45;;;;;;;7.49;100.00;94520.38;5095162;28;20050;-69
2021/10/12 05:36:08;;;;;;;6.60;4.30;;;;;;;7.55;100.00;94521.31;5099553;28;20048;-69
2021/10/12 05:38:35;;;;;;;4.88;2.90;;;;;;;7.53;100.00;94529.28;5094973;28;20047;-69
2021/10/12 05:41:02;;;;;;;4.07;3.00;;;;;;;7.66;100.00;94528.34;5095591;28;20047;-68
2021/10/12 05:43:29;;;;;;;4.55;3.30;;;;;;;7.71;100.00;94530.28;5096553;28;20043;-69
2021/10/12 05:45:56;;;;;;;3.60;2.90;;;;;;;7.65;100.00;94529.31;5094102;28;20036;-69
2021/10/12 05:48:23;;;;;;;3.97;2.85;;;;;;;7.59;100.00;94527.63;5097575;28;20122;-69
2021/10/12 05:50:49;;;;;;;3.28;2.95;;;;;;;7.63;100.00;94528.75;5094690;28;20062;-69
2021/10/12 05:58:25;;;;;;;6.82;4.18;;;;;;;7.69;100.00;94533.09;5092850;28;20036;-69
2021/10/12 06:00:52;;;;;;;3.60;2.58;;;;;;;7.64;100.00;94530.34;5086671;28;20035;-69
2021/10/12 06:03:20;;;;;;;3.20;2.38;;;;;;;7.63;100.00;94533.94;5092283;28;20428;-69
2021/10/12 06:05:48;;;;;;;6.45;3.80;;;;;;;7.56;100.00;94522.88;5094076;28;20063;-70
2021/10/12 06:08:15;;;;;;;5.13;2.97;;;;;;;7.71;100.00;94531.06;5095086;28;20043;-69
2021/10/12 06:10:42;;;;;;;14.93;8.15;;;;;;;7.78;100.00;94536.16;5090384;28;20047;-69
2021/10/12 06:13:10;;;;;;;11.23;6.75;;;;;;;7.84;100.00;94536.06;5091060;28;20044;-68
2021/10/12 06:15:40;;;;;;;9.70;5.55;;;;;;;7.78;100.00;94536.94;5085347;28;20101;-69
2021/10/12 06:18:09;;;;;;;6.53;4.95;;;;;;;7.74;100.00;94535.81;5091031;28;20397;-69
2021/10/12 06:20:37;;;;;;;5.07;3.40;;;;;;;7.70;100.00;94523.50;5070022;28;20413;-69
2021/10/12 06:23:03;;;;;;;4.03;2.90;;;;;;;7.84;100.00;94538.66;5098689;28;20047;-69
2021/10/12 06:25:31;;;;;;;3.53;3.00;;;;;;;7.92;100.00;94536.75;5075072;28;20100;-69
2021/10/12 06:27:57;;;;;;;3.70;2.75;;;;;;;7.77;100.00;94524.97;5091438;28;20040;-69
2021/10/12 06:30:24;;;;;;;5.07;2.70;;;;;;;7.65;100.00;94506.00;5100095;28;20125;-69
2021/10/12 06:32:51;;;;;;;3.92;2.45;;;;;;;7.77;100.00;94535.34;5100621;28;20073;-69
2021/10/12 06:35:18;;;;;;;4.85;3.00;;;;;;;7.79;100.00;94533.31;5096504;28;20449;-69
2021/10/12 06:37:44;;;;;;;4.45;2.97;;;;;;;7.86;100.00;94533.25;5091596;28;20039;-69
2021/10/12 06:40:13;;;;;;;2.95;2.35;;;;;;;7.87;100.00;94539.22;5096965;28;20044;-70
2021/10/12 06:42:39;;;;;;;4.25;3.20;;;;;;;7.87;100.00;94534.03;5095691;28;20048;-70
2021/10/12 06:45:07;;;;;;;5.57;3.28;;;;;;;7.75;100.00;94542.56;5093970;28;22558;-70
2021/10/12 06:47:34;;;;;;;6.13;2.78;;;;;;;7.75;100.00;94545.16;5100159;28;20040;-69
2021/10/12 06:50:00;;;;;;;4.45;2.80;;;;;;;7.81;100.00;94546.88;5096636;28;20071;-68
2021/10/12 06:52:27;;;;;;;9.52;3.65;;;;;;;7.82;100.00;94548.44;5096314;28;20389;-70
2021/10/12 06:54:54;;;;;;;4.45;2.80;;;;;;;7.84;100.00;94546.44;5092904;28;20044;-70
2021/10/12 06:57:21;;;;;;;4.25;2.63;;;;;;;7.89;100.00;94542.41;5095636;28;20098;-70
2021/10/12 06:59:52;;;;;;;4.35;2.78;;;;;;;7.79;100.00;94535.91;5075805;28;20048;-71
2021/10/12 07:02:19;;;;;;;6.20;3.65;;;;;;;7.92;100.00;94552.31;5095548;28;20044;-70
2021/10/12 07:04:46;;;;;;;6.65;4.20;;;;;;;7.87;100.00;94554.78;5097013;28;20508;-71
2021/10/12 07:07:13;;;;;;;8.32;4.18;;;;;;;7.84;100.00;94543.06;5101435;28;20035;-70
2021/10/12 07:09:40;;;;;;;5.25;3.65;;;;;;;7.93;100.00;94553.91;5095676;28;20251;-70
2021/10/12 07:12:07;;;;;;;4.43;3.30;;;;;;;7.84;100.00;94538.66;5102880;28;20056;-69
2021/10/12 07:14:34;;;;;;;4.60;3.47;;;;;;;8.03;100.00;94559.34;5081046;28;20058;-69
2021/10/12 07:17:02;;;;;;;5.43;3.83;;;;;;;7.96;100.00;94543.06;5093163;28;20036;-69
2021/10/12 07:19:29;;;;;;;6.18;3.33;;;;;;;8.12;100.00;94559.81;5074161;28;20044;-70
2021/10/12 07:21:56;;;;;;;7.07;4.03;;;;;;;7.93;100.00;94549.50;5098146;28;20497;-69
2021/10/12 07:24:24;;;;;;;8.02;3.90;;;;;;;7.98;100.00;94559.22;5096625;28;20040;-69
2021/10/12 07:26:52;;;;;;;5.05;3.78;;;;;;;7.99;100.00;94553.78;5092036;28;20594;-69
2021/10/12 07:29:19;;;;;;;6.07;4.07;;;;;;;7.99;100.00;94558.19;5092304;28;20509;-68
2021/10/12 07:31:46;;;;;;;4.40;3.33;;;;;;;7.99;100.00;94558.19;5096283;28;20040;-69
2021/10/12 07:34:13;;;;;;;4.47;2.40;;;;;;;7.91;100.00;94561.13;5093645;28;20048;-68
2021/10/12 07:36:40;;;;;;;4.97;3.17;;;;;;;7.93;100.00;94553.91;5091570;28;20609;-69
2021/10/12 07:39:07;;;;;;;5.78;3.03;;;;;;;7.91;100.00;94561.13;5094583;28;20051;-68
2021/10/12 07:41:35;;;;;;;6.15;3.85;;;;;;;7.92;100.00;94567.88;5094506;28;20055;-68
2021/10/12 07:44:03;;;;;;;7.40;4.57;;;;;;;8.00;100.00;94570.16;5096253;28;20036;-68
2021/10/12 07:46:30;;;;;;;6.68;4.28;;;;;;;8.09;100.00;94558.47;5093024;28;20056;-67
2021/10/12 07:49:00;;;;;;;5.10;3.40;;;;;;;8.01;100.00;94550.97;5097158;28;20673;-68
2021/10/12 07:51:40;;;;;;;5.40;3.30;;;;;;;8.06;100.00;94545.94;5089743;28;20056;-68
2021/10/12 07:54:13;;;;;;;5.55;3.83;;;;;;;8.11;100.00;94540.09;5092816;28;20040;-68
2021/10/12 07:56:40;;;;;;;5.65;3.55;;;;;;;8.27;100.00;94543.84;5090242;28;20665;-68
2021/10/12 07:59:09;;;;;;;5.05;3.13;;;;;;;8.22;100.00;94547.88;5086582;28;20489;-69
2021/10/12 08:01:37;;;;;;;6.80;4.28;;;;;;;8.30;100.00;94554.56;5085672;28;20051;-68
2021/10/12 08:04:07;;;;;;;3.15;2.22;;;;;;;8.27;100.00;94554.22;5090784;28;20036;-68
2021/10/12 08:06:34;;;;;;;4.45;3.47;;;;;;;8.27;100.00;94554.22;5094658;28;20055;-68
2021/10/12 08:09:01;;;;;;;3.75;3.08;;;;;;;8.23;100.00;94546.88;5092835;28;20048;-68
2021/10/12 08:11:28;;;;;;;3.95;2.85;;;;;;;8.20;100.00;94554.31;5090611;28;20047;-67
2021/10/12 08:14:00;;;;;;;3.13;2.63;;;;;;;8.13;100.00;94538.84;5095334;28;20544;-69
2021/10/12 08:16:30;;;;;;;3.33;2.38;;;;;;;8.19;100.00;94548.34;5094215;28;20037;-68
2021/10/12 08:19:07;;;;;;;3.67;2.72;;;;;;;8.27;100.00;94543.84;5091602;28;20115;-68
2021/10/12 08:21:35;;;;;;;5.88;3.60;;;;;;;8.32;100.00;94541.34;5089407;28;20712;-69
2021/10/12 08:24:05;;;;;;;2.67;1.95;;;;;;;8.28;100.00;94540.22;5096648;28;20035;-69
2021/10/12 08:26:33;;;;;;;4.03;2.60;;;;;;;8.27;100.00;94544.63;5097046;28;20044;-68
2021/10/12 08:29:00;;;;;;;5.30;3.22;;;;;;;8.24;100.00;94529.50;5096131;28;20085;-69
2021/10/12 08:31:27;;;;;;;4.20;3.53;;;;;;;8.23;100.00;94526.13;5096672;28;20035;-69
2021/10/12 08:33:54;;;;;;;3.60;2.63;;;;;;;8.30;100.00;94533.81;5094762;28;20064;-69
2021/10/12 08:36:22;;;;;;;5.40;3.50;;;;;;;8.29;100.00;94515.88;5091176;28;20456;-69
2021/10/12 08:39:03;;;;;;;4.20;2.92;;;;;;;8.33;100.00;94540.34;5098788;28;20058;-69
2021/10/12 08:41:35;;;;;;;6.22;3.20;;;;;;;8.34;100.00;94539.34;5093364;28;20044;-68
2021/10/12 08:44:03;;;;;;;4.68;3.20;;;;;;;8.36;100.00;94534.72;5097352;28;20117;-68
2021/10/12 08:46:30;;;;;;;4.15;2.50;;;;;;;8.31;100.00;94526.81;5091844;28;20051;-68
2021/10/12 08:48:58;;;;;;;3.70;2.60;;;;;;;8.47;100.00;94533.97;5095759;28;20044;-68
2021/10/12 08:51:26;;;;;;;3.65;2.70;;;;;;;8.56;100.00;94537.81;5090687;28;20055;-68
2021/10/12 08:53:54;;;;;;;4.80;3.30;;;;;;;8.59;100.00;94539.19;5094967;28;20051;-68
2021/10/12 08:56:21;;;;;;;6.20;3.80;;;;;;;8.54;100.00;94529.47;5094211;28;20062;-68
2021/10/12 08:58:48;;;;;;;4.82;3.35;;;;;;;8.63;100.00;94547.31;5092032;28;20130;-68
2021/10/12 09:01:17;;;;;;;7.00;4.95;;;;;;;8.63;100.00;94547.31;5091482;28;20035;-68
2021/10/12 09:06:34;;;;;;;4.63;3.08;;;;;;;8.61;100.00;94530.13;5088301;28;20123;-68
2021/10/12 09:09:16;;;;;;;10.10;4.10;;;;;;;8.68;100.00;94534.41;5091118;28;20126;-68
2021/10/12 09:11:44;;;;;;;4.57;3.42;;;;;;;8.78;100.00;94529.47;5089987;28;20051;-69
2021/10/12 09:14:14;;;;;;;4.47;3.10;;;;;;;8.76;100.00;94526.31;5089002;28;20064;-70
2021/10/12 09:16:43;;;;;;;4.13;3.35;;;;;;;8.80;100.00;94522.22;5089045;28;20101;-68
2021/10/12 09:19:10;;;;;;;5.28;3.28;;;;;;;8.88;100.00;94523.72;5090259;28;20138;-67
2021/10/12 09:21:42;;;;;;;3.90;3.50;;;;;;;8.92;100.00;94530.03;5091531;28;20065;-68
2021/10/12 09:24:10;;;;;;;3.97;2.83;;;;;;;8.78;100.00;94526.84;5093741;28;20063;-68
2021/10/12 09:26:40;;;;;;;8.80;3.10;;;;;;;8.90;100.00;94532.06;5096755;28;20031;-68
2021/10/12 09:29:25;;;;;;;9.70;3.30;;;;;;;8.90;100.00;94516.47;5090624;28;20584;-68
2021/10/12 09:31:54;;;;;;;4.57;3.22;;;;;;;8.85;100.00;94509.34;5096651;28;20134;-69
2021/10/12 09:34:23;;;;;;;3.72;2.15;;;;;;;8.86;100.00;94521.34;5090604;28;20071;-68
2021/10/12 09:36:51;;;;;;;4.55;3.35;;;;;;;9.01;100.00;94507.09;5071938;28;20073;-69
2021/10/12 09:39:33;;;;;;;4.32;3.53;;;;;;;8.95;100.00;94516.59;5095789;28;20416;-68
2021/10/12 09:42:03;;;;;;;5.93;3.72;;;;;;;8.86;100.00;94505.75;5091525;28;20043;-67
2021/10/12 09:44:31;;;;;;;5.45;3.60;;;;;;;8.93;100.00;94503.81;5092812;28;20501;-68
2021/10/12 09:47:25;;;;;;;6.05;3.75;;;;;;;8.93;100.00;94506.44;5093966;28;20423;-69
2021/10/12 09:50:10;;;;;;;4.18;2.92;;;;;;;8.87;100.00;94504.72;5088619;28;20063;-69
2021/10/12 09:52:46;;;;;;;6.82;3.70;;;;;;;8.87;100.00;94512.50;5092913;28;20062;-68
2021/10/12 09:55:36;;;;;;;5.32;4.30;;;;;;;8.89;100.00;94510.47;5091784;28;20104;-69
2021/10/12 09:58:04;;;;;;;4.75;3.65;;;;;;;8.83;100.00;94516.59;5092197;28;20043;-70
2021/10/12 10:00:31;;;;;;;8.48;6.07;;;;;;;8.76;100.00;94495.13;5092773;28;20050;-68
2021/10/12 10:02:59;;;;;;;8.63;6.18;;;;;;;8.68;100.00;94503.25;5097485;28;20040;-68
2021/10/12 10:05:28;;;;;;;8.80;6.32;;;;;;;8.71;100.00;94497.63;5087164;28;20055;-69
2021/10/12 10:07:58;;;;;;;8.93;7.03;;;;;;;8.85;100.00;94501.56;5096796;28;20039;-69
2021/10/12 10:10:43;;;;;;;7.00;5.47;;;;;;;8.86;100.00;94495.38;5090473;28;20044;-69
2021/10/12 10:13:10;;;;;;;7.40;3.63;;;;;;;8.94;100.00;94505.38;5096998;28;20063;-69
2021/10/12 10:15:39;;;;;;;2.75;1.83;;;;;;;8.94;100.00;94507.19;5096139;28;20117;-69
2021/10/12 10:18:07;;;;;;;9.38;2.53;;;;;;;8.95;100.00;94506.97;5089341;28;20031;-69
2021/10/12 10:20:34;;;;;;;3.20;2.13;;;;;;;9.01;100.00;94504.50;5092970;28;20104;-69
2021/10/12 10:23:01;;;;;;;2.40;2.20;;;;;;;9.01;100.00;94501.91;5095281;28;20097;-70
2021/10/12 10:25:38;;;;;;;6.13;3.17;;;;;;;9.08;100.00;94502.56;5096753;28;20097;-70
2021/10/12 10:28:35;;;;;;;2.67;2.10;;;;;;;9.08;100.00;94497.38;5093328;28;20042;-69
2021/10/12 10:31:05;;;;;;;3.35;2.38;;;;;;;9.05;100.00;94492.63;5096925;28;20052;-68
2021/10/12 10:33:37;;;;;;;3.85;3.10;;;;;;;9.03;100.00;94495.44;5091232;28;20040;-69
2021/10/12 10:36:15;;;;;;;6.00;4.70;;;;;;;8.90;100.00;94496.47;5090671;28;20470;-68
2021/10/12 10:38:46;;;;;;;9.35;4.70;;;;;;;9.02;100.00;94493.06;5087996;28;20032;-68
2021/10/12 10:41:15;;;;;;;5.40;3.75;;;;;;;9.10;100.00;94490.91;5066813;28;20081;-68
2021/10/12 10:43:48;;;;;;;3.63;3.13;;;;;;;8.97;100.00;94491.97;5093042;28;20052;-69
2021/10/12 10:46:30;;;;;;;2.92;2.60;;;;;;;8.98;100.00;94493.53;5088791;28;20047;-69
2021/10/12 10:49:09;;;;;;;3.70;2.65;;;;;;;9.01;100.00;94487.09;5099693;28;20066;-69
2021/10/12 10:51:46;;;;;;;4.82;2.83;;;;;;;9.02;100.00;94477.47;5073126;28;20032;-69
2021/10/12 10:54:38;;;;;;;5.00;3.47;;;;;;;9.04;100.00;94475.44;5093982;28;20043;-68
2021/10/12 10:57:19;;;;;;;4.10;3.10;;;;;;;9.12;100.00;94472.50;5092619;28;20062;-68
2021/10/12 10:59:46;;;;;;;2.80;2.25;;;;;;;9.12;100.00;94464.69;5093476;28;20047;-68
2021/10/12 11:02:26;;;;;;;2.22;1.60;;;;;;;9.10;100.00;94469.34;5089344;28;20422;-68
2021/10/12 11:04:53;;;;;;;1.90;1.30;;;;;;;9.10;100.00;94458.94;5089085;28;20135;-69
2021/10/12 11:07:24;;;;;;;3.00;2.08;;;;;;;8.99;100.00;94443.16;5094117;28;20042;-68
2021/10/12 11:09:53;;;;;;;3.70;2.58;;;;;;;9.10;100.00;94458.94;5088764;28;20050;-69
2021/10/12 11:12:25;;;;;;;2.42;2.05;;;;;;;9.10;100.00;94458.94;5095064;28;20070;-69
2021/10/12 11:14:53;;;;;;;3.97;2.78;;;;;;;9.14;100.00;94455.66;5092252;28;20117;-69
2021/10/12 11:17:23;;;;;;;4.97;3.55;;;;;;;9.12;100.00;94446.53;5101659;28;20046;-69
2021/10/12 11:19:58;;;;;;;4.65;3.17;;;;;;;9.08;100.00;94451.38;5095160;28;20416;-69
2021/10/12 11:22:26;;;;;;;7.40;3.78;;;;;;;9.19;100.00;94449.78;5094324;28;20416;-69
2021/10/12 11:24:54;;;;;;;4.18;2.50;;;;;;;9.24;100.00;94444.69;5098303;28;20047;-69
2021/10/12 11:27:41;;;;;;;4.53;3.10;;;;;;;9.32;100.00;94446.88;5094424;28;20116;-69
2021/10/12 11:30:11;;;;;;;2.30;1.90;;;;;;;9.30;100.00;94438.53;5097681;28;20040;-69
2021/10/12 11:32:39;;;;;;;3.42;2.22;;;;;;;9.34;100.00;94444.06;5097910;28;20058;-69
2021/10/12 11:35:12;;;;;;;2.42;1.90;;;;;;;9.41;100.00;94443.94;5076364;28;20051;-69
2021/10/12 11:37:56;;;;;;;3.83;2.70;;;;;;;9.44;100.00;94441.66;5096663;28;20040;-68
2021/10/12 11:40:27;;;;;;;4.13;2.53;;;;;;;9.36;100.00;94434.22;5093834;28;20054;-69
2021/10/12 11:42:59;;;;;;;3.85;2.55;;;;;;;9.42;100.00;94437.69;5090170;28;20044;-68
2021/10/12 11:45:30;;;;;;;4.45;3.13;;;;;;;9.41;100.00;94433.53;5092892;28;20071;-69
2021/10/12 11:47:58;;;;;;;7.20;3.25;;;;;;;9.46;100.00;94428.44;5093419;28;20540;-69
2021/10/12 11:50:25;;;;;;;3.83;2.92;;;;;;;9.40;100.00;94437.13;5091796;28;20043;-69